createdAt,value
2016-08-01T00:00:34.950Z,22.88
2016-08-01T00:01:34.914Z,22.96
2016-08-01T00:02:34.956Z,22.94
2016-08-01T00:03:34.961Z,22.91
2016-08-01T00:04:34.960Z,22.88
2016-08-01T00:05:34.964Z,22.91
2016-08-01T00:06:34.969Z,22.96
2016-08-01T00:07:35.000Z,22.85
2016-08-01T00:08:34.974Z,22.85
2016-08-01T00:09:35.005Z,22.91
2016-08-01T00:10:35.008Z,22.97
2016-08-01T00:11:34.996Z,22.88
2016-08-01T00:12:35.024Z,22.92
2016-08-01T00:13:35.046Z,22.92
2016-08-01T00:14:35.017Z,22.94
2016-08-01T00:15:35.070Z,22.86
2016-08-01T00:16:35.062Z,22.91
2016-08-01T00:17:35.058Z,22.89
2016-08-01T00:18:35.087Z,22.91
2016-08-01T00:19:35.081Z,22.88
2016-08-01T00:20:35.079Z,22.91
2016-08-01T00:21:35.094Z,22.88
2016-08-01T00:22:35.111Z,22.91
2016-08-01T00:23:35.117Z,22.91
2016-08-01T00:24:35.112Z,22.92
2016-08-01T00:25:35.151Z,22.96
2016-08-01T00:26:35.135Z,22.96
2016-08-01T00:27:35.139Z,22.89
2016-08-01T00:28:35.138Z,22.88
2016-08-01T00:29:35.167Z,22.85
2016-08-01T00:30:35.177Z,22.81
2016-08-01T00:31:35.183Z,22.92
2016-08-01T00:32:35.199Z,22.89
2016-08-01T00:33:35.231Z,22.91
2016-08-01T00:34:35.207Z,22.92
2016-08-01T00:35:35.214Z,22.81
2016-08-01T00:36:35.230Z,22.92
2016-08-01T00:37:35.229Z,22.92
2016-08-01T00:38:35.247Z,22.91
2016-08-01T00:39:35.240Z,22.82
2016-08-01T00:40:35.251Z,22.85
2016-08-01T00:41:35.269Z,22.91
2016-08-01T00:42:35.276Z,22.84
2016-08-01T00:43:35.269Z,22.85
2016-08-01T00:44:35.287Z,22.84
2016-08-01T00:45:35.310Z,22.88
2016-08-01T00:46:35.294Z,22.82
2016-08-01T00:47:35.331Z,22.84
2016-08-01T00:49:35.304Z,22.91
2016-08-01T00:50:36.013Z,22.82
2016-08-01T00:51:35.341Z,22.86
2016-08-01T00:52:35.349Z,22.82
2016-08-01T00:53:35.351Z,22.84
2016-08-01T00:54:35.364Z,22.82
2016-08-01T00:55:35.385Z,22.82
2016-08-01T00:56:35.403Z,22.84
2016-08-01T00:57:35.397Z,22.89
2016-08-01T00:58:35.420Z,22.82
2016-08-01T00:59:35.416Z,22.79
2016-08-01T01:00:35.425Z,22.85
2016-08-01T01:01:35.415Z,22.86
2016-08-01T01:02:35.450Z,22.82
2016-08-01T01:04:35.467Z,22.84
2016-08-01T01:05:35.461Z,22.82
2016-08-01T01:06:35.491Z,22.88
2016-08-01T01:07:35.480Z,22.82
2016-08-01T01:08:35.463Z,22.86
2016-08-01T01:09:35.513Z,22.86
2016-08-01T01:10:35.526Z,22.82
2016-08-01T01:11:35.527Z,22.84
2016-08-01T01:12:35.518Z,22.79
2016-08-01T01:13:35.540Z,22.78
2016-08-01T01:14:35.550Z,22.81
2016-08-01T01:15:35.537Z,22.71
2016-08-01T01:16:35.562Z,22.73
2016-08-01T01:17:35.551Z,22.73
2016-08-01T01:19:35.584Z,22.81
2016-08-01T01:20:35.588Z,22.75
2016-08-01T01:21:35.580Z,22.71
2016-08-01T01:22:35.592Z,22.67
2016-08-01T01:23:35.607Z,22.76
2016-08-01T01:24:35.619Z,22.76
2016-08-01T01:25:35.612Z,22.79
2016-08-01T01:26:35.626Z,22.76
2016-08-01T01:27:35.638Z,22.79
2016-08-01T01:28:35.645Z,22.75
2016-08-01T01:29:35.650Z,22.78
2016-08-01T01:30:35.682Z,22.76
2016-08-01T01:31:35.653Z,22.79
2016-08-01T01:32:35.660Z,22.7
2016-08-01T01:34:35.679Z,22.73
2016-08-01T01:35:35.690Z,22.76
2016-08-01T01:36:35.705Z,22.81
2016-08-01T01:37:35.734Z,22.66
2016-08-01T01:38:35.727Z,22.7
2016-08-01T01:39:35.742Z,22.78
2016-08-01T01:40:36.442Z,22.75
2016-08-01T01:41:35.741Z,22.7
2016-08-01T01:42:35.761Z,22.78
2016-08-01T01:43:35.768Z,22.71
2016-08-01T01:44:35.786Z,22.78
2016-08-01T01:45:35.798Z,22.7
2016-08-01T01:46:35.808Z,22.79
2016-08-01T01:47:35.818Z,22.71
2016-08-01T01:49:35.829Z,22.76
2016-08-01T01:50:35.848Z,22.69
2016-08-01T01:51:35.838Z,22.69
2016-08-01T01:52:35.849Z,22.7
2016-08-01T01:53:35.858Z,22.69
2016-08-01T01:54:35.861Z,22.75
2016-08-01T01:55:35.848Z,22.79
2016-08-01T01:56:35.886Z,22.76
2016-08-01T01:57:35.876Z,22.75
2016-08-01T01:58:35.892Z,22.69
2016-08-01T01:59:35.894Z,22.73
2016-08-01T02:00:35.889Z,22.76
2016-08-01T02:01:35.914Z,22.75
2016-08-01T02:02:35.933Z,22.67
2016-08-01T02:03:35.930Z,22.73
2016-08-01T02:04:35.972Z,22.73
2016-08-01T02:05:35.961Z,22.69
2016-08-01T02:06:35.947Z,22.73
2016-08-01T02:07:35.983Z,22.7
2016-08-01T02:08:35.970Z,22.69
2016-08-01T02:09:35.971Z,22.73
2016-08-01T02:10:36.006Z,22.73
2016-08-01T02:11:35.989Z,22.67
2016-08-01T02:12:36.010Z,22.67
2016-08-01T02:13:35.998Z,22.73
2016-08-01T02:14:36.019Z,22.76
2016-08-01T02:15:36.019Z,22.76
2016-08-01T02:16:36.031Z,22.71
2016-08-01T02:17:36.030Z,22.78
2016-08-01T02:18:36.054Z,22.71
2016-08-01T02:19:36.080Z,22.73
2016-08-01T02:20:36.049Z,22.73
2016-08-01T02:21:36.093Z,22.78
2016-08-01T02:22:36.089Z,22.67
2016-08-01T02:23:36.076Z,22.7
2016-08-01T02:24:36.111Z,22.69
2016-08-01T02:25:36.821Z,22.67
2016-08-01T02:26:36.119Z,22.76
2016-08-01T02:27:36.125Z,22.7
2016-08-01T02:28:36.126Z,22.76
2016-08-01T02:29:36.153Z,22.69
2016-08-01T02:30:36.147Z,22.64
2016-08-01T02:31:36.176Z,22.73
2016-08-01T02:32:36.173Z,22.64
2016-08-01T02:33:36.177Z,22.67
2016-08-01T02:34:36.182Z,22.6
2016-08-01T02:35:36.192Z,22.7
2016-08-01T02:36:36.173Z,22.67
2016-08-01T02:37:36.210Z,22.64
2016-08-01T02:38:36.237Z,22.67
2016-08-01T02:39:36.208Z,22.69
2016-08-01T02:40:36.228Z,22.7
2016-08-01T02:41:36.247Z,22.6
2016-08-01T02:42:36.254Z,22.61
2016-08-01T02:43:36.278Z,22.57
2016-08-01T02:44:36.250Z,22.63
2016-08-01T02:45:36.273Z,22.6
2016-08-01T02:46:36.287Z,22.67
2016-08-01T02:47:36.285Z,22.57
2016-08-01T02:48:36.290Z,22.71
2016-08-01T02:49:36.318Z,22.71
2016-08-01T02:50:36.334Z,22.55
2016-08-01T02:51:36.326Z,22.71
2016-08-01T02:52:36.328Z,22.59
2016-08-01T02:53:36.343Z,22.54
2016-08-01T02:54:36.349Z,22.67
2016-08-01T02:55:36.354Z,22.6
2016-08-01T02:56:36.349Z,22.55
2016-08-01T02:57:36.348Z,22.54
2016-08-01T02:58:36.393Z,22.55
2016-08-01T02:59:36.370Z,22.61
2016-08-01T03:00:36.375Z,22.6
2016-08-01T03:01:36.401Z,22.61
2016-08-01T03:02:36.414Z,22.6
2016-08-01T03:03:36.415Z,22.6
2016-08-01T03:04:36.431Z,22.63
2016-08-01T03:05:36.418Z,22.61
2016-08-01T03:06:36.430Z,22.55
2016-08-01T03:07:36.454Z,22.59
2016-08-01T03:08:36.452Z,22.63
2016-08-01T03:09:36.486Z,22.59
2016-08-01T03:10:36.474Z,22.61
2016-08-01T03:11:36.485Z,22.59
2016-08-01T03:12:36.508Z,22.55
2016-08-01T03:13:37.198Z,22.6
2016-08-01T03:14:36.496Z,22.61
2016-08-01T03:15:36.511Z,22.61
2016-08-01T03:16:36.520Z,22.6
2016-08-01T03:17:36.554Z,22.52
2016-08-01T03:18:36.557Z,22.55
2016-08-01T03:19:36.552Z,22.61
2016-08-01T03:20:36.545Z,22.64
2016-08-01T03:21:36.557Z,22.63
2016-08-01T03:22:36.555Z,22.54
2016-08-01T03:23:36.587Z,22.64
2016-08-01T03:24:36.592Z,22.52
2016-08-01T03:25:36.587Z,22.55
2016-08-01T03:26:36.602Z,22.57
2016-08-01T03:27:36.630Z,22.61
2016-08-01T03:28:36.618Z,22.57
2016-08-01T03:29:36.638Z,22.57
2016-08-01T03:30:36.630Z,22.6
2016-08-01T03:31:36.641Z,22.59
2016-08-01T03:32:36.655Z,22.64
2016-08-01T03:33:36.662Z,22.54
2016-08-01T03:34:36.678Z,22.55
2016-08-01T03:35:36.665Z,22.55
2016-08-01T03:36:36.691Z,22.57
2016-08-01T03:37:36.681Z,22.6
2016-08-01T03:38:36.707Z,22.59
2016-08-01T03:39:36.693Z,22.54
2016-08-01T03:40:36.736Z,22.61
2016-08-01T03:41:36.727Z,22.54
2016-08-01T03:42:36.735Z,22.64
2016-08-01T03:43:36.759Z,22.52
2016-08-01T03:44:36.757Z,22.63
2016-08-01T03:45:36.762Z,22.51
2016-08-01T03:46:36.789Z,22.55
2016-08-01T03:47:36.776Z,22.6
2016-08-01T03:48:36.797Z,22.63
2016-08-01T03:49:36.853Z,22.61
2016-08-01T03:50:36.797Z,22.61
2016-08-01T03:51:36.812Z,22.57
2016-08-01T03:52:36.816Z,22.6
2016-08-01T03:53:36.834Z,22.6
2016-08-01T03:54:36.844Z,22.57
2016-08-01T03:55:36.845Z,22.63
2016-08-01T03:56:36.847Z,22.67
2016-08-01T03:57:36.861Z,22.63
2016-08-01T03:58:36.847Z,22.51
2016-08-01T03:59:36.862Z,22.61
2016-08-01T04:00:36.884Z,22.63
2016-08-01T04:01:36.888Z,22.57
2016-08-01T04:02:36.880Z,22.59
2016-08-01T04:03:36.910Z,22.6
2016-08-01T04:04:36.923Z,22.64
2016-08-01T04:05:36.948Z,22.6
2016-08-01T04:06:36.938Z,22.57
2016-08-01T04:07:36.946Z,22.51
2016-08-01T04:08:36.954Z,22.59
2016-08-01T04:09:36.948Z,22.51
2016-08-01T04:10:36.951Z,22.55
2016-08-01T04:11:36.972Z,22.59
2016-08-01T04:12:36.974Z,22.63
2016-08-01T04:13:36.967Z,22.55
2016-08-01T04:14:36.999Z,22.59
2016-08-01T04:15:36.985Z,22.61
2016-08-01T04:16:36.997Z,22.57
2016-08-01T04:17:37.017Z,22.57
2016-08-01T04:18:37.012Z,22.57
2016-08-01T04:19:37.049Z,22.59
2016-08-01T04:20:37.035Z,22.59
2016-08-01T04:21:37.044Z,22.55
2016-08-01T04:22:37.050Z,22.61
2016-08-01T04:23:37.072Z,22.59
2016-08-01T04:24:37.072Z,22.6
2016-08-01T04:25:37.082Z,22.6
2016-08-01T04:26:37.082Z,22.59
2016-08-01T04:27:37.107Z,22.54
2016-08-01T04:28:37.102Z,22.51
2016-08-01T04:29:37.115Z,22.6
2016-08-01T04:30:37.129Z,22.57
2016-08-01T04:31:37.118Z,22.52
2016-08-01T04:32:37.130Z,22.57
2016-08-01T04:33:37.149Z,22.55
2016-08-01T04:34:37.153Z,22.61
2016-08-01T04:35:37.163Z,22.63
2016-08-01T04:36:37.179Z,22.63
2016-08-01T04:37:37.196Z,22.55
2016-08-01T04:38:37.176Z,22.6
2016-08-01T04:39:37.177Z,22.64
2016-08-01T04:40:37.187Z,22.6
2016-08-01T04:41:37.214Z,22.64
2016-08-01T04:42:37.236Z,22.55
2016-08-01T04:43:37.232Z,22.6
2016-08-01T04:44:37.235Z,22.6
2016-08-01T04:45:37.253Z,22.59
2016-08-01T04:46:37.250Z,22.6
2016-08-01T04:47:37.282Z,22.57
2016-08-01T04:48:37.284Z,22.6
2016-08-01T04:49:37.329Z,22.63
2016-08-01T04:50:37.292Z,22.61
2016-08-01T04:51:37.292Z,22.59
2016-08-01T04:52:37.292Z,22.57
2016-08-01T04:53:37.309Z,22.6
2016-08-01T04:54:37.313Z,22.55
2016-08-01T04:55:37.334Z,22.57
2016-08-01T04:56:37.328Z,22.55
2016-08-01T04:57:37.330Z,22.64
2016-08-01T04:58:37.338Z,22.67
2016-08-01T04:59:37.358Z,22.67
2016-08-01T05:00:37.357Z,22.67
2016-08-01T05:01:37.363Z,22.67
2016-08-01T05:02:37.384Z,22.7
2016-08-01T05:03:37.390Z,22.73
2016-08-01T05:04:37.375Z,22.57
2016-08-01T05:05:37.428Z,22.67
2016-08-01T05:06:37.424Z,22.67
2016-08-01T05:07:37.429Z,22.7
2016-08-01T05:08:37.429Z,22.69
2016-08-01T05:09:37.466Z,22.67
2016-08-01T05:10:37.429Z,22.57
2016-08-01T05:11:37.446Z,22.6
2016-08-01T05:12:37.458Z,22.67
2016-08-01T05:13:37.459Z,22.6
2016-08-01T05:14:37.472Z,22.7
2016-08-01T05:15:37.471Z,22.71
2016-08-01T05:16:37.498Z,22.66
2016-08-01T05:17:37.521Z,22.7
2016-08-01T05:18:37.501Z,22.67
2016-08-01T05:19:37.525Z,22.66
2016-08-01T05:20:37.521Z,22.66
2016-08-01T05:21:37.545Z,22.71
2016-08-01T05:22:37.549Z,22.7
2016-08-01T05:23:37.549Z,22.7
2016-08-01T05:24:37.574Z,22.69
2016-08-01T05:25:37.554Z,22.71
2016-08-01T05:26:37.562Z,22.64
2016-08-01T05:27:37.574Z,22.75
2016-08-01T05:28:37.594Z,22.69
2016-08-01T05:29:37.604Z,22.64
2016-08-01T05:30:37.612Z,22.66
2016-08-01T05:31:37.611Z,22.64
2016-08-01T05:32:37.632Z,22.78
2016-08-01T05:33:37.642Z,22.69
2016-08-01T05:34:37.634Z,22.71
2016-08-01T05:35:37.662Z,22.7
2016-08-01T05:36:37.679Z,22.69
2016-08-01T05:37:37.646Z,22.69
2016-08-01T05:38:37.681Z,22.64
2016-08-01T05:39:37.674Z,22.7
2016-08-01T05:40:37.663Z,22.63
2016-08-01T05:41:37.709Z,22.66
2016-08-01T05:42:37.705Z,22.73
2016-08-01T05:43:37.700Z,22.69
2016-08-01T05:44:37.716Z,22.75
2016-08-01T05:45:37.728Z,22.78
2016-08-01T05:46:37.731Z,22.67
2016-08-01T05:47:37.731Z,22.64
2016-08-01T05:48:37.752Z,22.7
2016-08-01T05:49:37.806Z,22.75
2016-08-01T05:50:37.755Z,22.7
2016-08-01T05:51:37.773Z,22.7
2016-08-01T05:52:37.764Z,22.75
2016-08-01T05:53:37.794Z,22.7
2016-08-01T05:54:37.787Z,22.75
2016-08-01T05:55:37.790Z,22.73
2016-08-01T05:56:37.801Z,22.69
2016-08-01T05:57:37.857Z,22.76
2016-08-01T05:58:37.822Z,22.75
2016-08-01T05:59:37.834Z,22.75
2016-08-01T06:00:37.852Z,22.69
2016-08-01T06:01:37.852Z,22.78
2016-08-01T06:02:37.863Z,22.73
2016-08-01T06:03:37.872Z,22.69
2016-08-01T06:04:37.892Z,22.69
2016-08-01T06:05:37.874Z,22.67
2016-08-01T06:06:37.883Z,22.79
2016-08-01T06:07:37.902Z,22.78
2016-08-01T06:08:37.932Z,22.73
2016-08-01T06:09:37.920Z,22.75
2016-08-01T06:10:37.936Z,22.75
2016-08-01T06:11:37.943Z,22.76
2016-08-01T06:12:37.950Z,22.71
2016-08-01T06:13:37.941Z,22.79
2016-08-01T06:14:37.981Z,22.67
2016-08-01T06:15:37.972Z,22.7
2016-08-01T06:16:37.967Z,22.81
2016-08-01T06:17:37.976Z,22.78
2016-08-01T06:18:37.980Z,22.73
2016-08-01T06:20:38.016Z,22.79
2016-08-01T06:21:38.015Z,22.76
2016-08-01T06:22:38.029Z,22.67
2016-08-01T06:23:38.034Z,22.73
2016-08-01T06:24:38.048Z,22.7
2016-08-01T06:25:38.057Z,22.7
2016-08-01T06:26:38.070Z,22.69
2016-08-01T06:27:38.068Z,22.84
2016-08-01T06:28:38.100Z,22.79
2016-08-01T06:29:38.096Z,22.67
2016-08-01T06:30:38.091Z,22.69
2016-08-01T06:31:38.118Z,22.76
2016-08-01T06:32:38.124Z,22.84
2016-08-01T06:33:38.130Z,22.84
2016-08-01T06:35:38.137Z,22.86
2016-08-01T06:36:38.846Z,22.86
2016-08-01T06:37:38.140Z,22.86
2016-08-01T06:38:38.161Z,22.88
2016-08-01T06:39:38.177Z,22.82
2016-08-01T06:40:38.190Z,22.78
2016-08-01T06:41:38.187Z,22.82
2016-08-01T06:42:38.192Z,22.81
2016-08-01T06:43:38.193Z,22.81
2016-08-01T06:44:38.231Z,22.73
2016-08-01T06:45:38.226Z,22.79
2016-08-01T06:46:38.234Z,22.81
2016-08-01T06:47:38.224Z,22.84
2016-08-01T06:48:38.245Z,22.86
2016-08-01T06:50:38.233Z,22.92
2016-08-01T06:51:38.257Z,22.92
2016-08-01T06:52:38.255Z,22.91
2016-08-01T06:53:38.272Z,22.97
2016-08-01T06:54:38.277Z,22.89
2016-08-01T06:55:38.318Z,22.88
2016-08-01T06:56:38.320Z,22.91
2016-08-01T06:57:38.327Z,22.89
2016-08-01T06:58:38.321Z,22.88
2016-08-01T06:59:38.328Z,22.89
2016-08-01T07:00:38.335Z,22.91
2016-08-01T07:01:38.333Z,22.91
2016-08-01T07:02:38.357Z,22.94
2016-08-01T07:03:38.353Z,22.96
2016-08-01T07:04:38.378Z,22.89
2016-08-01T07:05:38.388Z,22.86
2016-08-01T07:06:38.386Z,22.92
2016-08-01T07:07:38.372Z,22.92
2016-08-01T07:08:38.412Z,22.92
2016-08-01T07:09:38.412Z,22.85
2016-08-01T07:10:38.438Z,22.96
2016-08-01T07:11:38.409Z,22.99
2016-08-01T07:12:38.438Z,22.69
2016-08-01T07:13:38.429Z,22.69
2016-08-01T07:14:38.447Z,22.78
2016-08-01T07:15:38.452Z,22.69
2016-08-01T07:16:38.469Z,22.67
2016-08-01T07:17:38.463Z,22.86
2016-08-01T07:18:38.483Z,22.84
2016-08-01T07:19:38.488Z,22.84
2016-08-01T07:20:38.499Z,22.73
2016-08-01T07:21:38.506Z,22.7
2016-08-01T07:22:38.534Z,22.84
2016-08-01T07:23:38.518Z,22.82
2016-08-01T07:24:38.520Z,22.81
2016-08-01T07:25:38.514Z,22.7
2016-08-01T07:26:38.523Z,22.76
2016-08-01T07:27:38.541Z,22.73
2016-08-01T07:28:38.543Z,22.75
2016-08-01T07:29:38.593Z,22.57
2016-08-01T07:30:38.582Z,22.69
2016-08-01T07:31:38.594Z,22.69
2016-08-01T07:32:38.605Z,22.71
2016-08-01T07:33:38.577Z,22.59
2016-08-01T07:34:38.587Z,22.51
2016-08-01T07:35:38.633Z,22.54
2016-08-01T07:36:38.623Z,22.6
2016-08-01T07:37:38.614Z,22.59
2016-08-01T07:38:38.649Z,22.52
2016-08-01T07:39:38.647Z,22.57
2016-08-01T07:40:38.631Z,22.57
2016-08-01T07:41:38.655Z,22.48
2016-08-01T07:42:38.666Z,22.51
2016-08-01T07:43:38.678Z,22.51
2016-08-01T07:44:39.376Z,22.59
2016-08-01T07:45:38.699Z,22.55
2016-08-01T07:46:38.705Z,22.36
2016-08-01T07:47:38.701Z,22.54
2016-08-01T07:48:38.730Z,22.57
2016-08-01T07:49:38.711Z,22.57
2016-08-01T07:50:38.710Z,22.57
2016-08-01T07:51:38.732Z,22.57
2016-08-01T07:52:38.738Z,22.57
2016-08-01T07:53:38.747Z,22.55
2016-08-01T07:54:38.769Z,22.6
2016-08-01T07:55:38.769Z,22.55
2016-08-01T07:56:38.772Z,22.55
2016-08-01T07:57:38.796Z,22.55
2016-08-01T07:58:38.803Z,22.63
2016-08-01T07:59:38.805Z,22.59
2016-08-01T08:00:38.807Z,22.69
2016-08-01T08:01:38.832Z,22.75
2016-08-01T08:02:38.818Z,22.73
2016-08-01T08:03:38.818Z,22.64
2016-08-01T08:04:38.845Z,22.66
2016-08-01T08:05:38.860Z,22.54
2016-08-01T08:06:38.859Z,22.55
2016-08-01T08:07:38.859Z,22.6
2016-08-01T08:08:38.865Z,22.7
2016-08-01T08:09:38.894Z,22.71
2016-08-01T08:10:38.875Z,22.76
2016-08-01T08:11:38.903Z,22.81
2016-08-01T08:12:38.886Z,22.69
2016-08-01T08:13:38.927Z,22.7
2016-08-01T08:14:38.919Z,22.55
2016-08-01T08:15:38.939Z,22.6
2016-08-01T08:16:38.917Z,22.57
2016-08-01T08:17:38.937Z,22.6
2016-08-01T08:18:38.968Z,22.59
2016-08-01T08:19:38.956Z,22.6
2016-08-01T08:20:38.977Z,22.69
2016-08-01T08:21:38.991Z,22.64
2016-08-01T08:22:38.992Z,22.73
2016-08-01T08:23:38.995Z,22.7
2016-08-01T08:24:38.989Z,22.66
2016-08-01T08:25:39.004Z,22.73
2016-08-01T08:26:39.011Z,22.82
2016-08-01T08:27:39.010Z,22.86
2016-08-01T08:28:39.018Z,22.88
2016-08-01T08:29:39.045Z,22.85
2016-08-01T08:30:39.046Z,22.88
2016-08-01T08:31:39.038Z,22.79
2016-08-01T08:32:39.058Z,22.75
2016-08-01T08:33:39.068Z,22.84
2016-08-01T08:34:39.058Z,22.85
2016-08-01T08:35:39.085Z,22.92
2016-08-01T08:36:39.078Z,22.89
2016-08-01T08:37:39.090Z,22.89
2016-08-01T08:38:39.096Z,22.94
2016-08-01T08:39:39.126Z,22.91
2016-08-01T08:40:39.117Z,22.99
2016-08-01T08:41:39.137Z,23.04
2016-08-01T08:42:39.117Z,22.96
2016-08-01T08:43:39.151Z,22.99
2016-08-01T08:44:39.152Z,22.85
2016-08-01T08:45:39.158Z,22.85
2016-08-01T08:46:39.162Z,22.85
2016-08-01T08:47:39.187Z,22.91
2016-08-01T08:48:39.166Z,22.92
2016-08-01T08:49:39.178Z,22.96
2016-08-01T08:50:39.209Z,22.89
2016-08-01T08:51:39.202Z,22.84
2016-08-01T08:52:39.220Z,22.92
2016-08-01T08:53:39.220Z,22.82
2016-08-01T08:54:39.223Z,22.79
2016-08-01T08:55:39.244Z,22.75
2016-08-01T08:56:39.228Z,22.79
2016-08-01T08:57:39.264Z,22.82
2016-08-01T08:58:39.273Z,22.92
2016-08-01T08:59:39.256Z,22.86
2016-08-01T09:00:39.286Z,22.81
2016-08-01T09:01:39.303Z,22.91
2016-08-01T09:02:39.304Z,22.92
2016-08-01T09:03:39.300Z,22.96
2016-08-01T09:04:39.310Z,23.03
2016-08-01T09:05:39.309Z,23.04
2016-08-01T09:06:39.327Z,22.94
2016-08-01T09:07:39.331Z,23.01
2016-08-01T09:08:39.362Z,23.07
2016-08-01T09:09:39.335Z,23.1
2016-08-01T09:10:39.374Z,22.99
2016-08-01T09:11:39.360Z,23
2016-08-01T09:12:39.384Z,23
2016-08-01T09:13:39.387Z,23.07
2016-08-01T09:14:39.401Z,23.14
2016-08-01T09:15:39.381Z,23.18
2016-08-01T09:16:39.419Z,23.09
2016-08-01T09:17:39.444Z,22.99
2016-08-01T09:18:39.458Z,23.1
2016-08-01T09:19:39.426Z,23.1
2016-08-01T09:20:39.444Z,23.1
2016-08-01T09:21:39.429Z,23.06
2016-08-01T09:22:39.482Z,23.09
2016-08-01T09:23:39.454Z,23.18
2016-08-01T09:24:39.474Z,23.09
2016-08-01T09:25:39.476Z,23.12
2016-08-01T09:26:39.508Z,23.04
2016-08-01T09:27:39.515Z,23.06
2016-08-01T09:28:39.524Z,23.07
2016-08-01T09:29:39.510Z,23.06
2016-08-01T09:30:39.517Z,23.06
2016-08-01T09:31:39.557Z,23.1
2016-08-01T09:32:39.531Z,23.16
2016-08-01T09:33:39.552Z,23.24
2016-08-01T09:34:39.567Z,23.38
2016-08-01T09:35:39.557Z,23.18
2016-08-01T09:36:39.568Z,23.12
2016-08-01T09:37:39.586Z,22.99
2016-08-01T09:38:39.586Z,23.04
2016-08-01T09:39:39.612Z,23.14
2016-08-01T09:40:39.612Z,23.24
2016-08-01T09:41:39.630Z,23.28
2016-08-01T09:42:39.629Z,23.32
2016-08-01T09:43:39.630Z,23.34
2016-08-01T09:44:39.643Z,23.28
2016-08-01T09:45:39.659Z,23.41
2016-08-01T09:46:39.659Z,23.42
2016-08-01T09:47:39.661Z,23.52
2016-08-01T09:48:39.682Z,23.48
2016-08-01T09:49:39.847Z,23.47
2016-08-01T09:50:39.676Z,23.38
2016-08-01T09:51:39.691Z,23.4
2016-08-01T09:52:40.393Z,23.52
2016-08-01T09:53:39.702Z,23.53
2016-08-01T09:54:39.722Z,23.55
2016-08-01T09:55:39.731Z,23.45
2016-08-01T09:56:39.718Z,23.53
2016-08-01T09:57:39.757Z,23.56
2016-08-01T09:58:39.754Z,23.56
2016-08-01T09:59:39.752Z,23.6
2016-08-01T10:00:39.771Z,23.57
2016-08-01T10:01:40.460Z,23.67
2016-08-01T10:02:39.786Z,23.72
2016-08-01T10:03:39.787Z,23.77
2016-08-01T10:04:39.816Z,23.66
2016-08-01T10:05:39.813Z,23.78
2016-08-01T10:06:39.814Z,23.72
2016-08-01T10:07:39.837Z,23.74
2016-08-01T10:08:39.828Z,23.74
2016-08-01T10:09:39.836Z,23.81
2016-08-01T10:10:39.843Z,23.81
2016-08-01T10:11:39.863Z,23.81
2016-08-01T10:12:39.878Z,23.81
2016-08-01T10:13:39.889Z,23.77
2016-08-01T10:14:39.897Z,23.77
2016-08-01T10:15:40.600Z,23.75
2016-08-01T10:16:39.905Z,23.74
2016-08-01T10:17:39.893Z,23.6
2016-08-01T10:18:39.941Z,23.67
2016-08-01T10:19:39.921Z,23.78
2016-08-01T10:20:39.958Z,23.82
2016-08-01T10:21:39.948Z,23.94
2016-08-01T10:22:39.937Z,23.93
2016-08-01T10:23:39.947Z,23.85
2016-08-01T10:24:39.973Z,23.85
2016-08-01T10:25:39.995Z,23.87
2016-08-01T10:26:39.988Z,23.97
2016-08-01T10:27:39.999Z,23.97
2016-08-01T10:28:40.016Z,23.93
2016-08-01T10:29:40.002Z,23.92
2016-08-01T10:30:40.024Z,23.99
2016-08-01T10:31:40.034Z,23.93
2016-08-01T10:32:40.045Z,23.94
2016-08-01T10:33:40.065Z,23.97
2016-08-01T10:34:40.065Z,23.99
2016-08-01T10:35:40.064Z,23.9
2016-08-01T10:36:40.088Z,24.07
2016-08-01T10:37:40.075Z,24.04
2016-08-01T10:38:40.077Z,23.89
2016-08-01T10:39:40.099Z,24
2016-08-01T10:40:40.099Z,23.96
2016-08-01T10:41:40.124Z,24.08
2016-08-01T10:42:40.119Z,23.94
2016-08-01T10:43:40.111Z,24.03
2016-08-01T10:44:40.122Z,23.99
2016-08-01T10:45:40.155Z,24.07
2016-08-01T10:46:40.152Z,24.04
2016-08-01T10:47:40.164Z,24.04
2016-08-01T10:48:40.183Z,24.03
2016-08-01T10:49:40.192Z,23.93
2016-08-01T10:50:40.211Z,24.04
2016-08-01T10:51:40.196Z,24.02
2016-08-01T10:52:40.184Z,24.07
2016-08-01T10:53:40.224Z,24.09
2016-08-01T10:54:40.223Z,24
2016-08-01T10:55:40.244Z,24.11
2016-08-01T10:56:40.239Z,24.12
2016-08-01T10:57:40.230Z,24.04
2016-08-01T10:58:40.267Z,24.08
2016-08-01T10:59:40.267Z,24.11
2016-08-01T11:00:40.269Z,24.03
2016-08-01T11:01:40.288Z,24.08
2016-08-01T11:02:40.262Z,24.08
2016-08-01T11:03:40.291Z,23.99
2016-08-01T11:04:40.290Z,24.08
2016-08-01T11:05:40.297Z,24.09
2016-08-01T11:06:40.331Z,24.07
2016-08-01T11:07:40.331Z,24.03
2016-08-01T11:08:40.333Z,24.09
2016-08-01T11:09:40.357Z,24.24
2016-08-01T11:10:40.366Z,24.24
2016-08-01T11:11:40.335Z,24.22
2016-08-01T11:12:40.361Z,24.18
2016-08-01T11:13:40.358Z,24.24
2016-08-01T11:14:40.406Z,24.17
2016-08-01T11:15:40.393Z,24.11
2016-08-01T11:16:40.420Z,24.15
2016-08-01T11:17:40.403Z,24.08
2016-08-01T11:18:40.418Z,24.04
2016-08-01T11:19:40.433Z,24.18
2016-08-01T11:21:40.421Z,24.19
2016-08-01T11:22:40.453Z,24.21
2016-08-01T11:23:40.452Z,24.11
2016-08-01T11:24:40.458Z,24.12
2016-08-01T11:25:40.490Z,24.04
2016-08-01T11:26:40.455Z,24.14
2016-08-01T11:27:40.489Z,24.09
2016-08-01T11:28:40.503Z,24.03
2016-08-01T11:29:40.519Z,24.09
2016-08-01T11:30:40.506Z,24.08
2016-08-01T11:31:40.517Z,24.22
2016-08-01T11:32:40.527Z,24.11
2016-08-01T11:33:40.522Z,24.3
2016-08-01T11:34:40.537Z,24.24
2016-08-01T11:36:40.551Z,24.27
2016-08-01T11:37:40.580Z,24.29
2016-08-01T11:38:40.579Z,24.22
2016-08-01T11:39:40.596Z,24.17
2016-08-01T11:40:40.603Z,24.22
2016-08-01T11:41:40.580Z,24.22
2016-08-01T11:42:40.620Z,24.22
2016-08-01T11:43:40.617Z,24.08
2016-08-01T11:44:40.613Z,24.09
2016-08-01T11:45:40.633Z,24.21
2016-08-01T11:46:40.623Z,24.19
2016-08-01T11:47:40.656Z,24.18
2016-08-01T11:48:40.649Z,24.21
2016-08-01T11:49:40.663Z,24.24
2016-08-01T11:50:40.880Z,24.19
2016-08-01T11:51:40.690Z,24.26
2016-08-01T11:52:40.686Z,24.24
2016-08-01T11:53:40.667Z,24.22
2016-08-01T11:54:40.698Z,24.18
2016-08-01T11:55:40.702Z,24.21
2016-08-01T11:56:41.401Z,24.14
2016-08-01T11:57:40.712Z,24.08
2016-08-01T11:58:41.455Z,24.21
2016-08-01T11:59:40.732Z,24.21
2016-08-01T12:00:40.754Z,24.19
2016-08-01T12:01:40.760Z,24.21
2016-08-01T12:02:40.750Z,24.24
2016-08-01T12:03:40.776Z,24.27
2016-08-01T12:04:40.783Z,24.19
2016-08-01T12:05:40.790Z,24.32
2016-08-01T12:06:40.801Z,24.26
2016-08-01T12:07:40.783Z,24.17
2016-08-01T12:08:40.800Z,24.19
2016-08-01T12:09:40.793Z,24.19
2016-08-01T12:10:40.827Z,24.24
2016-08-01T12:11:40.830Z,24.27
2016-08-01T12:12:40.831Z,24.22
2016-08-01T12:13:40.841Z,24.19
2016-08-01T12:14:40.847Z,24.22
2016-08-01T12:15:40.860Z,24.22
2016-08-01T12:16:40.861Z,24.32
2016-08-01T12:17:40.874Z,24.3
2016-08-01T12:18:40.889Z,24.29
2016-08-01T12:19:40.887Z,24.29
2016-08-01T12:20:40.919Z,24.19
2016-08-01T12:21:40.898Z,24.3
2016-08-01T12:22:40.911Z,24.32
2016-08-01T12:23:40.936Z,24.27
2016-08-01T12:24:40.949Z,24.27
2016-08-01T12:25:40.936Z,24.26
2016-08-01T12:26:40.942Z,24.34
2016-08-01T12:27:40.976Z,24.32
2016-08-01T12:28:40.949Z,24.32
2016-08-01T12:29:40.972Z,24.3
2016-08-01T12:30:40.978Z,24.44
2016-08-01T12:31:40.982Z,24.45
2016-08-01T12:32:41.004Z,24.36
2016-08-01T12:33:41.002Z,24.42
2016-08-01T12:34:41.003Z,24.44
2016-08-01T12:35:41.008Z,24.36
2016-08-01T12:36:41.040Z,24.3
2016-08-01T12:37:41.040Z,24.33
2016-08-01T12:38:41.031Z,24.39
2016-08-01T12:39:41.040Z,24.42
2016-08-01T12:40:41.065Z,24.48
2016-08-01T12:41:41.066Z,24.52
2016-08-01T12:42:41.083Z,24.56
2016-08-01T12:43:41.063Z,24.52
2016-08-01T12:44:41.075Z,24.55
2016-08-01T12:45:41.108Z,24.67
2016-08-01T12:46:41.095Z,24.77
2016-08-01T12:47:41.087Z,24.74
2016-08-01T12:48:41.132Z,24.59
2016-08-01T12:49:41.122Z,24.55
2016-08-01T12:50:41.176Z,24.4
2016-08-01T12:51:41.150Z,24.37
2016-08-01T12:52:41.170Z,24.37
2016-08-01T12:53:41.141Z,24.33
2016-08-01T12:54:41.203Z,24.34
2016-08-01T12:55:41.160Z,24.52
2016-08-01T12:56:41.183Z,24.39
2016-08-01T12:57:41.181Z,24.39
2016-08-01T12:58:41.213Z,24.3
2016-08-01T12:59:41.233Z,24.32
2016-08-01T13:00:41.227Z,24.34
2016-08-01T13:01:41.231Z,24.3
2016-08-01T13:02:41.210Z,24.3
2016-08-01T13:03:41.234Z,24.33
2016-08-01T13:04:41.275Z,24.24
2016-08-01T13:05:41.267Z,24.26